Decoded Metar for PABT (BETTLES in AK, USA) (IATA:BTT) | Meteo·Mobile Aviation Weather
aviador You're here:

PABT Decoded Metar

BETTLES in AK, USA
Report Time2018-09-20 02:12:00
UTC Time2018-09-20 02:38:54
Flight Rules mvfr MVFR
Wind080° at 05 kt
W.Decomp.*RWY 01: 3.2 kt HW 3.8 kt RCW
W.Rank080° ranks 34
Current wind is below 080° avg. (5.8)
Visibility6437 m
Phenomena:Light Rain
Mist
Clouds:Few 008 Hf
Broken 014 Hf
Overcast 025 Hf
Expected CloudBase > 800 ft AGL from Temp-Dew spread
Ceiling1,400 ft
Temp07°C (ISA -7)
Dew Point05°C (87% RH)
AAT4.1°C
QNH1020 hPa
Density Alt-285 ft
Elevation640 ft
Report Wrong Elevation
Raw Report
PABT 200212Z 08005KT 4SM -RA BR FEW008 BKN014 OVC025 07/05 A3013=

Extra information for PABT:More info

Metar Taf Metar & Taf Last 4 Metars F.Rules Stats Wind Profile Meteogram Temp Stats Airport Information Weather charts Add Link Nearby VenuesMetar ALERT Operation Metar Decoded Social comments

AIRNAV info for PABT